sensor_id;sensor_type;location;lat;lon;timestamp;P1;durP1;ratioP1;P2;durP2;ratioP2
3677;SDS011;1855;50.934;6.958;2023-01-09T00:02:06;1.20;;;0.60;;
3677;SDS011;1855;50.934;6.958;2023-01-09T00:04:33;1.00;;;0.40;;
3677;SDS011;1855;50.934;6.958;2023-01-09T00:07:00;0.80;;;0.50;;
3677;SDS011;1855;50.934;6.958;2023-01-09T00:09:27;2.00;;;0.50;;
3677;SDS011;1855;50.934;6.958;2023-01-09T00:11:53;1.30;;;0.40;;
3677;SDS011;1855;50.934;6.958;2023-01-09T00:14:20;0.80;;;0.50;;
3677;SDS011;1855;50.934;6.958;2023-01-09T00:16:49;0.80;;;0.60;;
3677;SDS011;1855;50.934;6.958;2023-01-09T00:19:16;0.82;;;0.50;;
3677;SDS011;1855;50.934;6.958;2023-01-09T00:21:42;0.90;;;0.50;;
3677;SDS011;1855;50.934;6.958;2023-01-09T00:24:09;1.73;;;0.50;;
3677;SDS011;1855;50.934;6.958;2023-01-09T00:26:36;1.10;;;0.45;;
3677;SDS011;1855;50.934;6.958;2023-01-09T00:29:03;1.13;;;0.50;;
3677;SDS011;1855;50.934;6.958;2023-01-09T00:31:29;1.02;;;0.40;;
3677;SDS011;1855;50.934;6.958;2023-01-09T00:33:59;0.90;;;0.40;;
3677;SDS011;1855;50.934;6.958;2023-01-09T00:36:27;0.60;;;0.30;;
3677;SDS011;1855;50.934;6.958;2023-01-09T00:38:54;1.40;;;0.50;;
3677;SDS011;1855;50.934;6.958;2023-01-09T00:41:22;0.60;;;0.30;;
3677;SDS011;1855;50.934;6.958;2023-01-09T00:43:52;0.70;;;0.40;;
3677;SDS011;1855;50.934;6.958;2023-01-09T00:46:24;0.70;;;0.40;;
3677;SDS011;1855;50.934;6.958;2023-01-09T00:48:55;0.80;;;0.40;;
3677;SDS011;1855;50.934;6.958;2023-01-09T00:51:23;0.52;;;0.30;;
3677;SDS011;1855;50.934;6.958;2023-01-09T00:53:50;0.70;;;0.30;;
3677;SDS011;1855;50.934;6.958;2023-01-09T00:56:18;0.95;;;0.40;;
3677;SDS011;1855;50.934;6.958;2023-01-09T00:58:45;0.70;;;0.30;;
3677;SDS011;1855;50.934;6.958;2023-01-09T01:01:13;0.55;;;0.40;;
3677;SDS011;1855;50.934;6.958;2023-01-09T01:03:40;0.80;;;0.40;;
3677;SDS011;1855;50.934;6.958;2023-01-09T01:06:07;0.80;;;0.40;;
3677;SDS011;1855;50.934;6.958;2023-01-09T01:08:52;0.80;;;0.30;;
3677;SDS011;1855;50.934;6.958;2023-01-09T01:11:21;0.60;;;0.30;;
3677;SDS011;1855;50.934;6.958;2023-01-09T01:13:48;0.60;;;0.30;;
3677;SDS011;1855;50.934;6.958;2023-01-09T01:16:14;0.70;;;0.40;;
3677;SDS011;1855;50.934;6.958;2023-01-09T01:18:42;0.60;;;0.30;;
3677;SDS011;1855;50.934;6.958;2023-01-09T01:21:09;0.80;;;0.50;;
3677;SDS011;1855;50.934;6.958;2023-01-09T01:23:38;0.80;;;0.30;;
3677;SDS011;1855;50.934;6.958;2023-01-09T01:26:07;1.05;;;0.40;;
3677;SDS011;1855;50.934;6.958;2023-01-09T01:28:35;0.60;;;0.30;;
3677;SDS011;1855;50.934;6.958;2023-01-09T01:31:02;0.65;;;0.30;;
3677;SDS011;1855;50.934;6.958;2023-01-09T01:33:30;0.60;;;0.30;;
3677;SDS011;1855;50.934;6.958;2023-01-09T01:36:00;0.90;;;0.40;;
3677;SDS011;1855;50.934;6.958;2023-01-09T01:38:27;2.00;;;0.50;;
3677;SDS011;1855;50.934;6.958;2023-01-09T01:40:54;0.50;;;0.30;;
3677;SDS011;1855;50.934;6.958;2023-01-09T01:43:23;0.90;;;0.38;;
3677;SDS011;1855;50.934;6.958;2023-01-09T01:45:50;0.80;;;0.50;;
3677;SDS011;1855;50.934;6.958;2023-01-09T01:48:18;0.60;;;0.30;;
3677;SDS011;1855;50.934;6.958;2023-01-09T01:50:49;1.30;;;0.40;;
3677;SDS011;1855;50.934;6.958;2023-01-09T01:53:19;1.40;;;0.40;;
3677;SDS011;1855;50.934;6.958;2023-01-09T01:55:52;0.70;;;0.30;;
3677;SDS011;1855;50.934;6.958;2023-01-09T01:58:27;0.95;;;0.40;;
3677;SDS011;1855;50.934;6.958;2023-01-09T02:00:54;0.82;;;0.30;;
3677;SDS011;1855;50.934;6.958;2023-01-09T02:03:22;0.70;;;0.30;;
3677;SDS011;1855;50.934;6.958;2023-01-09T02:05:52;0.70;;;0.30;;
3677;SDS011;1855;50.934;6.958;2023-01-09T02:08:19;0.60;;;0.30;;
3677;SDS011;1855;50.934;6.958;2023-01-09T02:10:46;1.00;;;0.38;;
3677;SDS011;1855;50.934;6.958;2023-01-09T02:13:14;1.50;;;0.30;;
3677;SDS011;1855;50.934;6.958;2023-01-09T02:15:46;0.60;;;0.30;;
3677;SDS011;1855;50.934;6.958;2023-01-09T02:21:20;0.60;;;0.40;;
3677;SDS011;1855;50.934;6.958;2023-01-09T02:26:58;1.45;;;0.40;;
3677;SDS011;1855;50.934;6.958;2023-01-09T02:32:37;0.90;;;0.47;;
3677;SDS011;1855;50.934;6.958;2023-01-09T02:35:15;1.00;;;0.40;;
3677;SDS011;1855;50.934;6.958;2023-01-09T02:38:08;0.80;;;0.40;;
3677;SDS011;1855;50.934;6.958;2023-01-09T02:40:43;0.88;;;0.30;;
3677;SDS011;1855;50.934;6.958;2023-01-09T02:43:14;0.80;;;0.40;;
3677;SDS011;1855;50.934;6.958;2023-01-09T02:45:41;1.00;;;0.40;;
3677;SDS011;1855;50.934;6.958;2023-01-09T02:48:10;1.17;;;0.40;;
3677;SDS011;1855;50.934;6.958;2023-01-09T02:50:38;1.05;;;0.50;;
3677;SDS011;1855;50.934;6.958;2023-01-09T02:53:19;1.20;;;0.50;;
3677;SDS011;1855;50.934;6.958;2023-01-09T02:55:58;1.60;;;0.50;;
3677;SDS011;1855;50.934;6.958;2023-01-09T02:58:38;0.80;;;0.50;;
3677;SDS011;1855;50.934;6.958;2023-01-09T03:01:21;1.52;;;0.70;;
3677;SDS011;1855;50.934;6.958;2023-01-09T03:03:57;1.37;;;0.60;;
3677;SDS011;1855;50.934;6.958;2023-01-09T03:06:30;0.90;;;0.60;;
3677;SDS011;1855;50.934;6.958;2023-01-09T03:09:04;1.70;;;0.50;;
3677;SDS011;1855;50.934;6.958;2023-01-09T03:11:37;1.08;;;0.50;;
3677;SDS011;1855;50.934;6.958;2023-01-09T03:14:08;2.58;;;0.70;;
3677;SDS011;1855;50.934;6.958;2023-01-09T03:16:38;0.90;;;0.50;;
3677;SDS011;1855;50.934;6.958;2023-01-09T03:19:07;1.30;;;0.40;;
3677;SDS011;1855;50.934;6.958;2023-01-09T03:21:37;1.20;;;0.50;;
3677;SDS011;1855;50.934;6.958;2023-01-09T03:24:05;1.55;;;0.60;;
3677;SDS011;1855;50.934;6.958;2023-01-09T03:26:31;1.10;;;0.60;;
3677;SDS011;1855;50.934;6.958;2023-01-09T03:28:58;1.20;;;0.50;;
3677;SDS011;1855;50.934;6.958;2023-01-09T03:31:25;1.98;;;0.60;;
3677;SDS011;1855;50.934;6.958;2023-01-09T03:33:52;1.53;;;0.50;;
3677;SDS011;1855;50.934;6.958;2023-01-09T03:36:21;1.10;;;0.60;;
3677;SDS011;1855;50.934;6.958;2023-01-09T03:38:48;1.70;;;0.50;;
3677;SDS011;1855;50.934;6.958;2023-01-09T03:41:15;1.00;;;0.50;;
3677;SDS011;1855;50.934;6.958;2023-01-09T03:43:43;1.58;;;0.60;;
3677;SDS011;1855;50.934;6.958;2023-01-09T03:46:11;1.47;;;0.70;;
3677;SDS011;1855;50.934;6.958;2023-01-09T03:48:38;1.77;;;0.50;;
3677;SDS011;1855;50.934;6.958;2023-01-09T03:51:05;1.50;;;0.60;;
3677;SDS011;1855;50.934;6.958;2023-01-09T03:53:33;1.38;;;0.80;;
3677;SDS011;1855;50.934;6.958;2023-01-09T03:56:00;3.13;;;0.80;;
3677;SDS011;1855;50.934;6.958;2023-01-09T03:58:27;1.63;;;0.60;;
3677;SDS011;1855;50.934;6.958;2023-01-09T04:00:56;2.33;;;0.60;;
3677;SDS011;1855;50.934;6.958;2023-01-09T04:03:24;2.45;;;0.60;;
3677;SDS011;1855;50.934;6.958;2023-01-09T04:05:51;3.00;;;0.60;;
3677;SDS011;1855;50.934;6.958;2023-01-09T04:08:18;1.90;;;0.88;;
3677;SDS011;1855;50.934;6.958;2023-01-09T04:10:46;2.10;;;0.70;;
3677;SDS011;1855;50.934;6.958;2023-01-09T04:13:14;2.00;;;0.80;;
3677;SDS011;1855;50.934;6.958;2023-01-09T04:15:41;2.00;;;0.70;;
3677;SDS011;1855;50.934;6.958;2023-01-09T04:18:08;1.73;;;0.70;;
3677;SDS011;1855;50.934;6.958;2023-01-09T04:20:35;1.70;;;1.08;;
3677;SDS011;1855;50.934;6.958;2023-01-09T04:23:02;2.40;;;1.30;;
3677;SDS011;1855;50.934;6.958;2023-01-09T04:25:28;2.03;;;1.03;;
3677;SDS011;1855;50.934;6.958;2023-01-09T04:27:57;1.48;;;0.90;;
3677;SDS011;1855;50.934;6.958;2023-01-09T04:30:24;2.90;;;0.80;;
3677;SDS011;1855;50.934;6.958;2023-01-09T04:32:50;1.60;;;0.70;;
3677;SDS011;1855;50.934;6.958;2023-01-09T04:35:17;2.75;;;0.68;;
3677;SDS011;1855;50.934;6.958;2023-01-09T04:37:45;2.58;;;0.77;;
3677;SDS011;1855;50.934;6.958;2023-01-09T04:40:12;1.50;;;0.60;;
3677;SDS011;1855;50.934;6.958;2023-01-09T04:42:39;1.10;;;0.60;;
3677;SDS011;1855;50.934;6.958;2023-01-09T04:45:08;1.67;;;0.80;;
3677;SDS011;1855;50.934;6.958;2023-01-09T04:47:36;1.90;;;0.70;;
3677;SDS011;1855;50.934;6.958;2023-01-09T04:50:03;1.30;;;0.63;;
3677;SDS011;1855;50.934;6.958;2023-01-09T04:52:30;1.75;;;0.80;;
3677;SDS011;1855;50.934;6.958;2023-01-09T04:54:57;2.00;;;0.70;;
3677;SDS011;1855;50.934;6.958;2023-01-09T04:57:24;2.22;;;0.60;;
3677;SDS011;1855;50.934;6.958;2023-01-09T04:59:51;2.80;;;0.80;;
3677;SDS011;1855;50.934;6.958;2023-01-09T05:02:19;2.88;;;0.80;;
3677;SDS011;1855;50.934;6.958;2023-01-09T05:04:45;1.75;;;0.70;;
3677;SDS011;1855;50.934;6.958;2023-01-09T05:07:12;2.13;;;0.80;;
3677;SDS011;1855;50.934;6.958;2023-01-09T05:09:39;2.70;;;0.52;;
3677;SDS011;1855;50.934;6.958;2023-01-09T05:12:06;1.60;;;0.70;;
3677;SDS011;1855;50.934;6.958;2023-01-09T05:14:33;2.78;;;0.82;;
3677;SDS011;1855;50.934;6.958;2023-01-09T05:17:00;2.90;;;0.80;;
3677;SDS011;1855;50.934;6.958;2023-01-09T05:19:28;2.30;;;0.60;;
3677;SDS011;1855;50.934;6.958;2023-01-09T05:21:55;3.80;;;1.00;;
3677;SDS011;1855;50.934;6.958;2023-01-09T05:24:22;1.60;;;0.90;;
3677;SDS011;1855;50.934;6.958;2023-01-09T05:26:48;3.58;;;0.90;;
3677;SDS011;1855;50.934;6.958;2023-01-09T05:29:15;1.90;;;0.77;;
3677;SDS011;1855;50.934;6.958;2023-01-09T05:31:42;2.47;;;0.80;;
3677;SDS011;1855;50.934;6.958;2023-01-09T05:34:08;2.00;;;0.90;;
3677;SDS011;1855;50.934;6.958;2023-01-09T05:36:37;3.83;;;1.10;;
3677;SDS011;1855;50.934;6.958;2023-01-09T05:39:03;1.90;;;0.77;;
3677;SDS011;1855;50.934;6.958;2023-01-09T05:41:30;2.03;;;1.00;;
3677;SDS011;1855;50.934;6.958;2023-01-09T05:43:57;5.22;;;0.95;;
3677;SDS011;1855;50.934;6.958;2023-01-09T05:46:24;1.95;;;0.80;;
3677;SDS011;1855;50.934;6.958;2023-01-09T05:48:51;2.78;;;1.00;;
3677;SDS011;1855;50.934;6.958;2023-01-09T05:51:18;2.90;;;0.80;;
3677;SDS011;1855;50.934;6.958;2023-01-09T05:53:46;3.70;;;0.90;;
3677;SDS011;1855;50.934;6.958;2023-01-09T05:56:13;1.88;;;0.88;;
3677;SDS011;1855;50.934;6.958;2023-01-09T05:58:40;4.25;;;1.30;;
3677;SDS011;1855;50.934;6.958;2023-01-09T06:01:07;3.40;;;0.90;;
3677;SDS011;1855;50.934;6.958;2023-01-09T06:03:34;2.00;;;0.70;;
3677;SDS011;1855;50.934;6.958;2023-01-09T06:06:01;2.22;;;0.73;;
3677;SDS011;1855;50.934;6.958;2023-01-09T06:08:28;1.92;;;0.70;;
3677;SDS011;1855;50.934;6.958;2023-01-09T06:10:56;1.70;;;0.80;;
3677;SDS011;1855;50.934;6.958;2023-01-09T06:13:22;3.47;;;1.10;;
3677;SDS011;1855;50.934;6.958;2023-01-09T06:15:49;1.77;;;0.75;;
3677;SDS011;1855;50.934;6.958;2023-01-09T06:18:16;2.55;;;0.70;;
3677;SDS011;1855;50.934;6.958;2023-01-09T06:20:43;3.10;;;1.00;;
3677;SDS011;1855;50.934;6.958;2023-01-09T06:23:10;3.90;;;1.20;;
3677;SDS011;1855;50.934;6.958;2023-01-09T06:25:37;1.73;;;0.70;;
3677;SDS011;1855;50.934;6.958;2023-01-09T06:28:05;2.85;;;0.70;;
3677;SDS011;1855;50.934;6.958;2023-01-09T06:30:32;1.95;;;0.63;;
3677;SDS011;1855;50.934;6.958;2023-01-09T06:32:59;1.52;;;0.70;;
3677;SDS011;1855;50.934;6.958;2023-01-09T06:35:26;2.03;;;1.00;;
3677;SDS011;1855;50.934;6.958;2023-01-09T06:37:53;3.90;;;1.20;;
3677;SDS011;1855;50.934;6.958;2023-01-09T06:40:20;2.38;;;0.80;;
3677;SDS011;1855;50.934;6.958;2023-01-09T06:42:47;1.27;;;1.00;;
3677;SDS011;1855;50.934;6.958;2023-01-09T06:45:15;3.40;;;1.00;;
3677;SDS011;1855;50.934;6.958;2023-01-09T06:47:42;2.45;;;1.13;;
3677;SDS011;1855;50.934;6.958;2023-01-09T06:50:10;1.50;;;0.80;;
3677;SDS011;1855;50.934;6.958;2023-01-09T06:52:37;3.53;;;0.93;;
3677;SDS011;1855;50.934;6.958;2023-01-09T06:55:04;1.50;;;0.77;;
3677;SDS011;1855;50.934;6.958;2023-01-09T06:57:32;2.85;;;0.90;;
3677;SDS011;1855;50.934;6.958;2023-01-09T06:59:59;2.97;;;1.00;;
3677;SDS011;1855;50.934;6.958;2023-01-09T07:02:27;1.73;;;0.80;;
3677;SDS011;1855;50.934;6.958;2023-01-09T07:04:54;3.30;;;1.10;;
3677;SDS011;1855;50.934;6.958;2023-01-09T07:07:20;2.00;;;1.30;;
3677;SDS011;1855;50.934;6.958;2023-01-09T07:09:47;1.60;;;1.00;;
3677;SDS011;1855;50.934;6.958;2023-01-09T07:12:14;1.77;;;0.90;;
3677;SDS011;1855;50.934;6.958;2023-01-09T07:14:41;2.83;;;1.20;;
3677;SDS011;1855;50.934;6.958;2023-01-09T07:17:08;3.92;;;1.73;;
3677;SDS011;1855;50.934;6.958;2023-01-09T07:19:38;2.45;;;1.20;;
3677;SDS011;1855;50.934;6.958;2023-01-09T07:22:05;2.20;;;0.90;;
3677;SDS011;1855;50.934;6.958;2023-01-09T07:24:31;2.55;;;1.20;;
3677;SDS011;1855;50.934;6.958;2023-01-09T07:26:58;2.72;;;1.10;;
3677;SDS011;1855;50.934;6.958;2023-01-09T07:29:25;3.25;;;1.60;;
3677;SDS011;1855;50.934;6.958;2023-01-09T07:31:52;2.60;;;1.20;;
3677;SDS011;1855;50.934;6.958;2023-01-09T07:34:18;3.05;;;1.10;;
3677;SDS011;1855;50.934;6.958;2023-01-09T07:36:46;2.85;;;1.10;;
3677;SDS011;1855;50.934;6.958;2023-01-09T07:39:15;2.25;;;1.10;;
3677;SDS011;1855;50.934;6.958;2023-01-09T07:41:42;1.80;;;1.17;;
3677;SDS011;1855;50.934;6.958;2023-01-09T07:44:09;2.60;;;1.10;;
3677;SDS011;1855;50.934;6.958;2023-01-09T07:46:36;2.17;;;1.10;;
3677;SDS011;1855;50.934;6.958;2023-01-09T07:49:03;2.50;;;1.00;;
3677;SDS011;1855;50.934;6.958;2023-01-09T07:51:30;3.65;;;1.08;;
3677;SDS011;1855;50.934;6.958;2023-01-09T07:53:59;1.95;;;0.90;;
3677;SDS011;1855;50.934;6.958;2023-01-09T07:56:25;2.40;;;0.90;;
3677;SDS011;1855;50.934;6.958;2023-01-09T07:58:52;1.83;;;1.10;;
3677;SDS011;1855;50.934;6.958;2023-01-09T08:01:19;2.40;;;1.23;;
3677;SDS011;1855;50.934;6.958;2023-01-09T08:03:45;3.08;;;1.10;;
3677;SDS011;1855;50.934;6.958;2023-01-09T08:06:12;2.40;;;1.20;;
3677;SDS011;1855;50.934;6.958;2023-01-09T08:08:39;1.65;;;1.20;;
3677;SDS011;1855;50.934;6.958;2023-01-09T08:11:08;3.40;;;1.60;;
3677;SDS011;1855;50.934;6.958;2023-01-09T08:13:35;2.73;;;1.50;;
3677;SDS011;1855;50.934;6.958;2023-01-09T08:16:02;2.20;;;1.30;;
3677;SDS011;1855;50.934;6.958;2023-01-09T08:18:29;1.70;;;1.10;;
3677;SDS011;1855;50.934;6.958;2023-01-09T08:20:55;2.70;;;1.30;;
3677;SDS011;1855;50.934;6.958;2023-01-09T08:23:22;1.90;;;1.30;;
3677;SDS011;1855;50.934;6.958;2023-01-09T08:25:49;1.70;;;1.20;;
3677;SDS011;1855;50.934;6.958;2023-01-09T08:28:17;1.80;;;1.13;;
3677;SDS011;1855;50.934;6.958;2023-01-09T08:30:44;2.97;;;1.20;;
3677;SDS011;1855;50.934;6.958;2023-01-09T08:33:12;2.13;;;0.95;;
3677;SDS011;1855;50.934;6.958;2023-01-09T08:35:39;2.97;;;1.10;;
3677;SDS011;1855;50.934;6.958;2023-01-09T08:38:05;2.05;;;1.00;;
3677;SDS011;1855;50.934;6.958;2023-01-09T08:40:32;1.60;;;0.80;;
3677;SDS011;1855;50.934;6.958;2023-01-09T08:42:59;3.30;;;0.90;;
3677;SDS011;1855;50.934;6.958;2023-01-09T08:45:44;1.90;;;0.63;;
3677;SDS011;1855;50.934;6.958;2023-01-09T08:48:29;2.58;;;0.82;;
3677;SDS011;1855;50.934;6.958;2023-01-09T08:50:56;2.15;;;0.80;;
3677;SDS011;1855;50.934;6.958;2023-01-09T08:53:22;1.80;;;0.70;;
3677;SDS011;1855;50.934;6.958;2023-01-09T08:55:49;1.95;;;0.80;;
3677;SDS011;1855;50.934;6.958;2023-01-09T08:58:16;1.50;;;0.75;;
3677;SDS011;1855;50.934;6.958;2023-01-09T09:00:42;1.88;;;0.90;;
3677;SDS011;1855;50.934;6.958;2023-01-09T09:03:10;1.60;;;0.82;;
3677;SDS011;1855;50.934;6.958;2023-01-09T09:05:37;2.70;;;0.90;;
3677;SDS011;1855;50.934;6.958;2023-01-09T09:08:04;2.53;;;1.43;;
3677;SDS011;1855;50.934;6.958;2023-01-09T09:10:31;3.72;;;1.08;;
3677;SDS011;1855;50.934;6.958;2023-01-09T09:12:58;1.10;;;0.80;;
3677;SDS011;1855;50.934;6.958;2023-01-09T09:15:25;3.00;;;0.90;;
3677;SDS011;1855;50.934;6.958;2023-01-09T09:17:54;2.88;;;1.27;;
3677;SDS011;1855;50.934;6.958;2023-01-09T09:20:23;1.52;;;0.90;;
3677;SDS011;1855;50.934;6.958;2023-01-09T09:22:51;1.88;;;0.80;;
3677;SDS011;1855;50.934;6.958;2023-01-09T09:25:18;1.92;;;1.00;;
3677;SDS011;1855;50.934;6.958;2023-01-09T09:27:46;2.10;;;0.85;;
3677;SDS011;1855;50.934;6.958;2023-01-09T09:30:14;1.83;;;1.00;;
3677;SDS011;1855;50.934;6.958;2023-01-09T09:32:42;2.10;;;0.82;;
3677;SDS011;1855;50.934;6.958;2023-01-09T09:35:10;3.60;;;1.00;;
3677;SDS011;1855;50.934;6.958;2023-01-09T09:37:37;1.52;;;0.80;;
3677;SDS011;1855;50.934;6.958;2023-01-09T09:40:05;2.05;;;0.80;;
3677;SDS011;1855;50.934;6.958;2023-01-09T09:42:43;1.63;;;0.90;;
3677;SDS011;1855;50.934;6.958;2023-01-09T09:45:43;1.98;;;0.80;;
3677;SDS011;1855;50.934;6.958;2023-01-09T09:48:22;2.15;;;1.05;;
3677;SDS011;1855;50.934;6.958;2023-01-09T09:51:13;2.53;;;1.10;;
3677;SDS011;1855;50.934;6.958;2023-01-09T09:53:50;1.40;;;0.77;;
3677;SDS011;1855;50.934;6.958;2023-01-09T09:56:24;0.90;;;0.60;;
3677;SDS011;1855;50.934;6.958;2023-01-09T09:58:53;1.73;;;0.80;;
3677;SDS011;1855;50.934;6.958;2023-01-09T10:01:26;2.10;;;0.80;;
3677;SDS011;1855;50.934;6.958;2023-01-09T10:04:09;1.80;;;0.98;;
3677;SDS011;1855;50.934;6.958;2023-01-09T10:06:41;0.98;;;0.70;;
3677;SDS011;1855;50.934;6.958;2023-01-09T10:09:12;1.20;;;0.70;;
3677;SDS011;1855;50.934;6.958;2023-01-09T10:11:45;2.80;;;0.90;;
3677;SDS011;1855;50.934;6.958;2023-01-09T10:14:16;1.00;;;0.60;;
3677;SDS011;1855;50.934;6.958;2023-01-09T10:16:46;1.45;;;0.95;;
3677;SDS011;1855;50.934;6.958;2023-01-09T10:19:40;1.50;;;0.80;;
3677;SDS011;1855;50.934;6.958;2023-01-09T10:22:25;2.97;;;0.80;;
3677;SDS011;1855;50.934;6.958;2023-01-09T10:25:02;1.50;;;0.75;;
3677;SDS011;1855;50.934;6.958;2023-01-09T10:27:40;1.10;;;0.80;;
3677;SDS011;1855;50.934;6.958;2023-01-09T10:30:25;1.73;;;0.57;;
3677;SDS011;1855;50.934;6.958;2023-01-09T10:33:00;1.70;;;0.90;;
3677;SDS011;1855;50.934;6.958;2023-01-09T10:35:40;1.77;;;0.80;;
3677;SDS011;1855;50.934;6.958;2023-01-09T10:38:19;1.38;;;0.60;;
3677;SDS011;1855;50.934;6.958;2023-01-09T10:40:49;1.20;;;0.60;;
3677;SDS011;1855;50.934;6.958;2023-01-09T10:43:24;1.83;;;0.90;;
3677;SDS011;1855;50.934;6.958;2023-01-09T10:45:59;1.17;;;0.60;;
3677;SDS011;1855;50.934;6.958;2023-01-09T10:48:29;2.38;;;0.90;;
3677;SDS011;1855;50.934;6.958;2023-01-09T10:50:58;1.00;;;0.77;;
3677;SDS011;1855;50.934;6.958;2023-01-09T10:53:27;2.20;;;1.00;;
3677;SDS011;1855;50.934;6.958;2023-01-09T10:55:59;2.47;;;0.73;;
3677;SDS011;1855;50.934;6.958;2023-01-09T10:58:29;1.38;;;0.70;;
3677;SDS011;1855;50.934;6.958;2023-01-09T11:00:56;1.63;;;0.70;;
3677;SDS011;1855;50.934;6.958;2023-01-09T11:03:26;3.20;;;0.82;;
3677;SDS011;1855;50.934;6.958;2023-01-09T11:05:54;2.40;;;1.25;;
3677;SDS011;1855;50.934;6.958;2023-01-09T11:08:23;2.00;;;0.85;;
3677;SDS011;1855;50.934;6.958;2023-01-09T11:10:56;2.47;;;0.60;;
3677;SDS011;1855;50.934;6.958;2023-01-09T11:13:24;3.10;;;0.70;;
3677;SDS011;1855;50.934;6.958;2023-01-09T11:15:57;1.30;;;0.70;;
3677;SDS011;1855;50.934;6.958;2023-01-09T11:18:25;1.10;;;0.65;;
3677;SDS011;1855;50.934;6.958;2023-01-09T11:20:52;1.52;;;0.70;;
3677;SDS011;1855;50.934;6.958;2023-01-09T11:23:23;1.98;;;0.80;;
3677;SDS011;1855;50.934;6.958;2023-01-09T11:25:54;1.52;;;0.70;;
3677;SDS011;1855;50.934;6.958;2023-01-09T11:28:22;1.45;;;0.60;;
3677;SDS011;1855;50.934;6.958;2023-01-09T11:30:50;2.10;;;0.55;;
3677;SDS011;1855;50.934;6.958;2023-01-09T11:33:19;1.98;;;0.60;;
3677;SDS011;1855;50.934;6.958;2023-01-09T11:35:51;1.20;;;0.60;;
3677;SDS011;1855;50.934;6.958;2023-01-09T11:38:21;2.22;;;0.73;;
3677;SDS011;1855;50.934;6.958;2023-01-09T11:40:49;2.00;;;0.80;;
3677;SDS011;1855;50.934;6.958;2023-01-09T11:43:21;2.83;;;0.90;;
3677;SDS011;1855;50.934;6.958;2023-01-09T11:45:55;5.95;;;1.50;;
3677;SDS011;1855;50.934;6.958;2023-01-09T11:48:27;2.25;;;1.13;;
3677;SDS011;1855;50.934;6.958;2023-01-09T11:50:56;3.80;;;1.30;;
3677;SDS011;1855;50.934;6.958;2023-01-09T11:53:24;1.73;;;0.90;;
3677;SDS011;1855;50.934;6.958;2023-01-09T11:55:55;1.90;;;0.80;;
3677;SDS011;1855;50.934;6.958;2023-01-09T11:58:28;1.75;;;0.70;;
3677;SDS011;1855;50.934;6.958;2023-01-09T12:01:01;2.20;;;1.05;;
3677;SDS011;1855;50.934;6.958;2023-01-09T12:03:39;2.70;;;0.70;;
3677;SDS011;1855;50.934;6.958;2023-01-09T12:06:29;1.60;;;0.70;;
3677;SDS011;1855;50.934;6.958;2023-01-09T12:09:02;1.67;;;0.70;;
3677;SDS011;1855;50.934;6.958;2023-01-09T12:11:32;1.10;;;0.60;;
3677;SDS011;1855;50.934;6.958;2023-01-09T12:14:10;2.30;;;0.90;;
3677;SDS011;1855;50.934;6.958;2023-01-09T12:16:49;3.30;;;0.90;;
3677;SDS011;1855;50.934;6.958;2023-01-09T12:19:36;2.27;;;1.10;;
3677;SDS011;1855;50.934;6.958;2023-01-09T12:22:21;1.45;;;0.70;;
3677;SDS011;1855;50.934;6.958;2023-01-09T12:27:50;2.50;;;0.80;;
3677;SDS011;1855;50.934;6.958;2023-01-09T12:30:40;2.17;;;0.70;;
3677;SDS011;1855;50.934;6.958;2023-01-09T12:33:21;4.00;;;0.80;;
3677;SDS011;1855;50.934;6.958;2023-01-09T12:36:00;0.80;;;0.50;;
3677;SDS011;1855;50.934;6.958;2023-01-09T12:38:38;1.52;;;0.82;;
3677;SDS011;1855;50.934;6.958;2023-01-09T12:41:15;1.20;;;0.80;;
3677;SDS011;1855;50.934;6.958;2023-01-09T12:43:54;1.50;;;0.70;;
3677;SDS011;1855;50.934;6.958;2023-01-09T12:46:36;2.20;;;1.00;;
3677;SDS011;1855;50.934;6.958;2023-01-09T12:49:23;1.42;;;0.60;;
3677;SDS011;1855;50.934;6.958;2023-01-09T12:51:56;1.70;;;0.68;;
3677;SDS011;1855;50.934;6.958;2023-01-09T12:54:29;2.65;;;0.90;;
3677;SDS011;1855;50.934;6.958;2023-01-09T12:57:03;1.50;;;0.90;;
3677;SDS011;1855;50.934;6.958;2023-01-09T12:59:37;1.80;;;0.88;;
3677;SDS011;1855;50.934;6.958;2023-01-09T13:02:13;1.90;;;0.80;;
3677;SDS011;1855;50.934;6.958;2023-01-09T13:04:47;1.17;;;0.77;;
3677;SDS011;1855;50.934;6.958;2023-01-09T13:07:19;3.05;;;0.90;;
3677;SDS011;1855;50.934;6.958;2023-01-09T13:09:50;1.85;;;0.85;;
3677;SDS011;1855;50.934;6.958;2023-01-09T13:12:21;1.83;;;0.60;;
3677;SDS011;1855;50.934;6.958;2023-01-09T13:14:51;1.88;;;0.80;;
3677;SDS011;1855;50.934;6.958;2023-01-09T13:17:26;2.72;;;0.90;;
3677;SDS011;1855;50.934;6.958;2023-01-09T13:19:56;2.45;;;0.80;;
3677;SDS011;1855;50.934;6.958;2023-01-09T13:22:23;2.78;;;1.20;;
3677;SDS011;1855;50.934;6.958;2023-01-09T13:24:56;2.42;;;1.20;;
3677;SDS011;1855;50.934;6.958;2023-01-09T13:27:42;1.70;;;1.13;;
3677;SDS011;1855;50.934;6.958;2023-01-09T13:30:17;1.80;;;1.00;;
3677;SDS011;1855;50.934;6.958;2023-01-09T13:32:54;3.67;;;1.60;;
3677;SDS011;1855;50.934;6.958;2023-01-09T13:35:29;3.75;;;1.20;;
3677;SDS011;1855;50.934;6.958;2023-01-09T13:37:56;2.05;;;1.40;;
3677;SDS011;1855;50.934;6.958;2023-01-09T13:40:23;2.50;;;1.27;;
3677;SDS011;1855;50.934;6.958;2023-01-09T13:42:54;3.10;;;1.30;;
3677;SDS011;1855;50.934;6.958;2023-01-09T13:45:22;3.13;;;1.17;;
3677;SDS011;1855;50.934;6.958;2023-01-09T13:50:50;3.50;;;1.63;;
3677;SDS011;1855;50.934;6.958;2023-01-09T13:56:11;2.88;;;1.50;;
3677;SDS011;1855;50.934;6.958;2023-01-09T13:58:55;2.70;;;1.63;;
3677;SDS011;1855;50.934;6.958;2023-01-09T14:01:38;2.05;;;1.70;;
3677;SDS011;1855;50.934;6.958;2023-01-09T14:04:35;4.18;;;1.70;;
3677;SDS011;1855;50.934;6.958;2023-01-09T14:07:15;4.10;;;1.90;;
3677;SDS011;1855;50.934;6.958;2023-01-09T14:09:50;3.83;;;1.92;;
3677;SDS011;1855;50.934;6.958;2023-01-09T14:12:20;3.47;;;1.70;;
3677;SDS011;1855;50.934;6.958;2023-01-09T14:14:47;2.65;;;1.60;;
3677;SDS011;1855;50.934;6.958;2023-01-09T14:17:16;3.73;;;1.70;;
3677;SDS011;1855;50.934;6.958;2023-01-09T14:19:52;2.78;;;1.52;;
3677;SDS011;1855;50.934;6.958;2023-01-09T14:22:24;4.70;;;1.55;;
3677;SDS011;1855;50.934;6.958;2023-01-09T14:24:53;2.95;;;2.00;;
3677;SDS011;1855;50.934;6.958;2023-01-09T14:30:33;4.15;;;2.20;;
3677;SDS011;1855;50.934;6.958;2023-01-09T14:33:02;3.03;;;1.73;;
3677;SDS011;1855;50.934;6.958;2023-01-09T14:35:36;3.15;;;1.70;;
3677;SDS011;1855;50.934;6.958;2023-01-09T14:38:16;3.15;;;1.80;;
3677;SDS011;1855;50.934;6.958;2023-01-09T14:40:52;4.10;;;1.60;;
3677;SDS011;1855;50.934;6.958;2023-01-09T14:43:24;3.03;;;2.00;;
3677;SDS011;1855;50.934;6.958;2023-01-09T14:45:58;5.47;;;1.90;;
3677;SDS011;1855;50.934;6.958;2023-01-09T14:48:29;3.90;;;1.90;;
3677;SDS011;1855;50.934;6.958;2023-01-09T14:51:03;3.65;;;2.00;;
3677;SDS011;1855;50.934;6.958;2023-01-09T14:53:33;4.43;;;1.85;;
3677;SDS011;1855;50.934;6.958;2023-01-09T14:56:03;4.00;;;2.00;;
3677;SDS011;1855;50.934;6.958;2023-01-09T14:58:32;5.73;;;2.00;;
3677;SDS011;1855;50.934;6.958;2023-01-09T15:01:00;4.90;;;1.70;;
3677;SDS011;1855;50.934;6.958;2023-01-09T15:03:31;2.60;;;1.63;;
3677;SDS011;1855;50.934;6.958;2023-01-09T15:06:04;3.63;;;1.88;;
3677;SDS011;1855;50.934;6.958;2023-01-09T15:08:35;3.97;;;1.92;;
3677;SDS011;1855;50.934;6.958;2023-01-09T15:11:02;4.53;;;1.92;;
3677;SDS011;1855;50.934;6.958;2023-01-09T15:13:31;5.45;;;2.20;;
3677;SDS011;1855;50.934;6.958;2023-01-09T15:16:01;3.78;;;1.70;;
3677;SDS011;1855;50.934;6.958;2023-01-09T15:18:31;6.40;;;2.33;;
3677;SDS011;1855;50.934;6.958;2023-01-09T15:21:13;3.08;;;1.98;;
3677;SDS011;1855;50.934;6.958;2023-01-09T15:23:43;3.63;;;2.05;;
3677;SDS011;1855;50.934;6.958;2023-01-09T15:26:18;2.60;;;1.80;;
3677;SDS011;1855;50.934;6.958;2023-01-09T15:28:50;3.20;;;1.92;;
3677;SDS011;1855;50.934;6.958;2023-01-09T15:31:19;2.90;;;1.80;;
3677;SDS011;1855;50.934;6.958;2023-01-09T15:33:49;3.80;;;1.70;;
3677;SDS011;1855;50.934;6.958;2023-01-09T15:36:18;1.60;;;1.50;;
3677;SDS011;1855;50.934;6.958;2023-01-09T15:38:47;2.30;;;1.30;;
3677;SDS011;1855;50.934;6.958;2023-01-09T15:41:16;3.50;;;1.40;;
3677;SDS011;1855;50.934;6.958;2023-01-09T15:44:04;2.63;;;2.10;;
3677;SDS011;1855;50.934;6.958;2023-01-09T15:46:38;2.93;;;1.97;;
3677;SDS011;1855;50.934;6.958;2023-01-09T15:49:07;3.70;;;1.90;;
3677;SDS011;1855;50.934;6.958;2023-01-09T15:51:37;4.53;;;2.20;;
3677;SDS011;1855;50.934;6.958;2023-01-09T15:54:05;3.30;;;2.45;;
3677;SDS011;1855;50.934;6.958;2023-01-09T15:56:35;4.55;;;2.00;;